Time;durP1;ratioP1;P1;durP2;ratioP2;P2;SDS_P1;SDS_P2;PMS_P1;PMS_P2;Temp;Humidity;BMP_temperature;BMP_pressure;BME280_temperature;BME280_humidity;BME280_pressure;Samples;Min_cycle;Max_cycle;Signal;HPM_P1;HPM_P2
2022/07/05 06:21:14;;;;;;;6.32;1.60;;;;;;;18.72;54.80;96972.94;2101492;27;21079;-66
2022/07/05 06:22:15;;;;;;;4.03;1.75;;;;;;;18.85;54.47;96973.72;2101161;28;20203;-66
2022/07/05 06:23:17;;;;;;;14.75;1.80;;;;;;;18.92;54.08;96968.88;2080886;28;20253;-67
2022/07/05 06:24:18;;;;;;;9.55;2.13;;;;;;;18.68;54.32;96969.66;2089098;28;20686;-67
2022/07/05 06:25:20;;;;;;;2.22;1.17;;;;;;;18.89;54.56;96975.19;2085694;28;20197;-67
2022/07/05 06:26:24;;;;;;;7.15;1.90;;;;;;;18.99;54.13;96971.91;2081394;28;20205;-66
2022/07/05 06:27:25;;;;;;;8.00;2.28;;;;;;;19.02;53.55;96977.81;2083884;28;20204;-66
2022/07/05 06:51:17;;;;;;;5.25;1.65;;;;;;;20.44;48.06;96995.31;2106876;27;20596;-64
2022/07/05 06:52:19;;;;;;;3.92;1.30;;;;;;;20.21;47.08;96995.34;2107077;28;20233;-65
2022/07/05 06:53:21;;;;;;;4.47;1.50;;;;;;;20.25;47.07;96995.09;2097747;28;20921;-65
2022/07/05 06:54:22;;;;;;;5.93;1.60;;;;;;;20.32;46.33;96994.50;2096813;28;20673;-64
2022/07/05 06:55:46;;;;;;;8.63;1.20;;;;;;;20.59;46.47;96995.09;2098926;28;20662;-62
2022/07/05 06:56:56;;;;;;;4.57;1.30;;;;;;;20.58;46.22;96990.75;2095369;28;20205;-63
2022/07/05 07:16:51;;;;;;;5.43;1.05;;;;;;;22.02;43.66;96991.28;2085244;28;20561;-62
2022/07/05 07:17:53;;;;;;;3.92;1.00;;;;;;;21.73;43.17;96990.28;2067701;28;20264;-63
2022/07/05 07:18:55;;;;;;;3.65;1.05;;;;;;;21.98;43.25;96995.19;2074818;28;20814;-65
2022/07/05 07:20:15;;;;;;;5.00;1.20;;;;;;;22.06;43.08;96988.38;2070129;28;20226;-65
2022/07/05 07:21:16;;;;;;;12.23;3.42;;;;;;;22.25;42.98;96999.09;2069433;28;20550;-65
2022/07/05 07:22:17;;;;;;;3.78;1.10;;;;;;;21.97;42.92;96990.84;2066646;28;20201;-65
2022/07/05 07:23:19;;;;;;;2.33;0.82;;;;;;;22.00;43.42;96992.41;2064589;28;20709;-66
2022/07/05 07:42:17;;;;;;;2.05;1.00;;;;;;;22.63;40.30;97004.75;2100758;27;20569;-63
2022/07/05 07:43:19;;;;;;;3.25;1.20;;;;;;;22.65;40.66;97000.97;2074687;28;20224;-64
2022/07/05 07:44:20;;;;;;;4.72;1.10;;;;;;;22.79;40.95;97012.19;2085762;28;20199;-63
2022/07/05 07:45:22;;;;;;;3.10;1.10;;;;;;;22.82;40.34;97004.78;2078479;28;20205;-65
2022/07/05 07:46:23;;;;;;;4.70;1.10;;;;;;;22.71;39.82;97004.06;2076144;28;20204;-65
2022/07/05 07:47:25;;;;;;;5.63;0.98;;;;;;;22.72;40.55;97005.75;2076977;28;20220;-65
2022/07/05 07:48:28;;;;;;;2.95;0.98;;;;;;;22.78;41.08;97011.38;2066183;28;20225;-65
2022/07/05 07:49:30;;;;;;;2.80;1.10;;;;;;;22.96;40.66;97003.56;2075869;28;20194;-65
2022/07/05 08:08:26;;;;;;;14.23;1.10;;;;;;;23.91;38.78;97011.88;2095701;27;20587;-65
2022/07/05 08:09:27;;;;;;;10.50;1.05;;;;;;;23.86;39.36;97021.25;2103030;28;20195;-65
2022/07/05 08:10:29;;;;;;;6.03;1.15;;;;;;;23.97;38.66;97013.13;2095682;28;20669;-65
2022/07/05 08:11:31;;;;;;;9.77;1.20;;;;;;;24.10;38.12;97018.16;2095379;28;20193;-66
2022/07/05 08:12:32;;;;;;;6.38;1.20;;;;;;;24.03;37.37;97019.72;2094764;28;20192;-65
2022/07/05 08:13:35;;;;;;;5.82;1.10;;;;;;;23.78;37.47;97020.16;2095098;28;20199;-65
2022/07/05 08:14:36;;;;;;;3.15;1.20;;;;;;;23.83;38.13;97027.72;2094302;28;20207;-65
2022/07/05 08:15:38;;;;;;;3.72;1.10;;;;;;;23.88;38.00;97022.78;2095222;28;20686;-65
2022/07/05 08:33:25;;;;;;;4.38;1.00;;;;;;;24.98;36.77;97011.63;2099302;27;20554;-65
2022/07/05 08:34:27;;;;;;;5.25;1.25;;;;;;;25.11;35.84;97022.78;2106294;28;20723;-64
2022/07/05 08:35:29;;;;;;;8.35;1.10;;;;;;;25.11;34.69;97022.78;2106288;28;20192;-65
2022/07/05 08:36:30;;;;;;;2.70;1.00;;;;;;;25.02;35.48;97019.19;2099054;28;20199;-64
2022/07/05 08:37:32;;;;;;;13.43;1.23;;;;;;;25.27;35.25;97025.63;2090157;28;20206;-64
2022/07/05 08:38:33;;;;;;;4.70;1.05;;;;;;;25.25;34.25;97024.09;2107610;28;20237;-65
2022/07/05 08:39:35;;;;;;;2.00;0.90;;;;;;;24.80;35.67;97023.13;2102518;28;20190;-65
2022/07/05 08:40:39;;;;;;;1.80;0.80;;;;;;;25.16;34.82;97027.69;2098169;28;20199;-65
2022/07/05 08:41:43;;;;;;;2.85;1.00;;;;;;;25.41;34.59;97023.44;2094093;28;20199;-65
2022/07/05 08:42:45;;;;;;;3.78;1.00;;;;;;;25.40;35.58;97030.63;2090257;28;20260;-65
2022/07/05 09:01:13;;;;;;;3.92;1.15;;;;;;;25.85;33.83;97027.97;2090021;28;20558;-66
2022/07/05 09:02:16;;;;;;;2.78;1.13;;;;;;;25.68;33.46;97017.16;2086785;28;20189;-67
2022/07/05 09:03:22;;;;;;;5.97;0.90;;;;;;;26.04;33.33;97024.28;2076630;28;20232;-67
2022/07/05 09:04:29;;;;;;;2.75;0.95;;;;;;;26.21;33.11;97023.41;2086548;28;20691;-67
2022/07/05 09:05:42;;;;;;;6.25;1.20;;;;;;;25.91;34.19;97019.34;2078411;28;20201;-67
2022/07/05 09:06:47;;;;;;;5.65;1.05;;;;;;;25.31;33.96;97025.34;2078131;28;20266;-67
2022/07/05 09:07:57;;;;;;;1.85;0.90;;;;;;;25.65;34.47;97021.97;2069009;28;20208;-67
2022/07/05 09:09:00;;;;;;;4.85;1.10;;;;;;;25.95;34.17;97030.56;2073655;28;20209;-67
2022/07/05 09:10:02;;;;;;;4.22;1.02;;;;;;;26.12;33.88;97029.72;2075819;28;20201;-68
2022/07/05 09:11:06;;;;;;;6.15;1.25;;;;;;;26.26;32.84;97022.97;2078639;28;20197;-67
2022/07/05 09:12:08;;;;;;;5.15;1.08;;;;;;;26.34;32.47;97014.97;2078813;28;20203;-67
2022/07/05 09:29:57;;;;;;;3.45;1.00;;;;;;;26.67;33.82;97033.88;2083796;28;20981;-67
2022/07/05 09:31:04;;;;;;;4.47;1.48;;;;;;;26.86;33.62;97027.44;2081797;28;20231;-67
2022/07/05 09:32:05;;;;;;;7.70;1.45;;;;;;;27.13;33.06;97040.75;2083864;28;20197;-67
2022/07/05 09:33:09;;;;;;;7.70;1.20;;;;;;;27.27;32.78;97039.28;2076793;28;20271;-67
2022/07/05 09:34:13;;;;;;;6.47;1.02;;;;;;;27.26;32.17;97045.66;2072243;28;20209;-68
2022/07/05 09:35:21;;;;;;;4.50;1.10;;;;;;;27.43;32.39;97044.72;2088324;28;20623;-67
2022/07/05 09:36:23;;;;;;;7.18;1.23;;;;;;;27.57;30.99;97047.75;2087020;28;20215;-67
2022/07/05 09:37:43;;;;;;;6.55;0.85;;;;;;;27.54;30.85;97047.06;2075070;28;20775;-67
2022/07/05 09:38:51;;;;;;;6.38;1.10;;;;;;;27.21;30.48;97046.97;2072298;28;20609;-67
2022/07/05 09:53:00;;;;;;;4.18;1.10;;;;;;;27.00;31.32;97042.06;2095117;27;20562;-63
2022/07/05 09:54:02;;;;;;;5.53;1.02;;;;;;;27.18;31.20;97051.81;2089818;28;20192;-64
2022/07/05 09:55:10;;;;;;;2.85;1.00;;;;;;;27.21;31.16;97046.13;2085880;28;20219;-64
2022/07/05 09:56:13;;;;;;;20.33;1.45;;;;;;;27.26;31.60;97051.84;2088590;28;20279;-64
2022/07/05 09:57:24;;;;;;;2.70;1.00;;;;;;;27.42;31.32;97048.38;2091031;28;20228;-64
2022/07/05 09:58:26;;;;;;;11.70;1.13;;;;;;;27.36;30.46;97046.31;2092051;28;20233;-65
2022/07/05 09:59:28;;;;;;;20.45;1.67;;;;;;;26.86;31.25;97043.50;2103017;28;20210;-64
2022/07/05 10:00:29;;;;;;;15.15;1.25;;;;;;;26.95;31.48;97046.22;2092630;28;20200;-65
2022/07/05 10:01:32;;;;;;;2.10;0.80;;;;;;;27.25;31.61;97042.13;2090030;28;20199;-67
2022/07/05 10:02:35;;;;;;;3.40;0.90;;;;;;;27.56;31.46;97038.03;2078857;28;20196;-67
2022/07/05 10:03:58;;;;;;;2.30;0.90;;;;;;;27.63;30.63;97041.69;2108207;28;20203;-67
2022/07/05 10:05:18;;;;;;;2.25;0.60;;;;;;;26.87;31.48;97041.69;2101000;28;20203;-68
2022/07/05 10:06:22;;;;;;;7.72;1.45;;;;;;;27.33;30.57;97041.31;2087373;28;20671;-67
2022/07/05 10:07:31;;;;;;;2.83;0.90;;;;;;;27.62;29.99;97040.88;2087676;28;20200;-67
2022/07/05 10:08:33;;;;;;;1.58;0.70;;;;;;;28.05;30.23;97035.38;2090298;28;20224;-68
2022/07/05 10:09:34;;;;;;;1.55;0.80;;;;;;;27.82;30.51;97040.53;2091116;28;20562;-68
2022/07/05 10:10:37;;;;;;;3.92;0.90;;;;;;;27.94;30.86;97033.81;2086189;28;20251;-67
2022/07/05 10:11:40;;;;;;;8.77;1.20;;;;;;;27.88;31.51;97031.00;2090014;28;20646;-68
2022/07/05 10:12:44;;;;;;;2.15;1.08;;;;;;;27.79;30.76;97036.34;2091615;28;20244;-68
2022/07/05 10:13:50;;;;;;;1.65;0.80;;;;;;;28.08;30.52;97035.00;2088175;28;20675;-68
2022/07/05 10:32:48;;;;;;;2.60;0.70;;;;;;;28.28;28.73;97050.78;2087768;28;20564;-67
2022/07/05 10:33:50;;;;;;;2.60;0.95;;;;;;;28.21;28.77;97044.41;2082522;28;20197;-68
2022/07/05 10:34:52;;;;;;;1.85;0.68;;;;;;;28.57;28.20;97049.34;2082387;28;20188;-68
2022/07/05 10:35:56;;;;;;;2.10;0.80;;;;;;;28.19;27.92;97045.41;2082810;28;20221;-67
2022/07/05 10:36:58;;;;;;;2.30;0.80;;;;;;;28.37;28.25;97040.81;2078765;28;20200;-67
2022/07/05 10:38:01;;;;;;;2.10;0.75;;;;;;;28.13;28.78;97037.19;2072462;28;20699;-67
2022/07/05 10:39:03;;;;;;;2.33;0.80;;;;;;;28.30;28.48;97038.00;2088305;28;20196;-67
2022/07/05 10:40:06;;;;;;;1.90;0.93;;;;;;;28.84;27.96;97048.94;2084588;28;20193;-67
2022/07/05 10:41:10;;;;;;;3.65;0.85;;;;;;;28.67;28.18;97041.94;2081036;28;20234;-67
2022/07/05 10:42:14;;;;;;;3.08;0.70;;;;;;;29.08;28.06;97041.78;2078888;28;20849;-66
2022/07/05 10:43:16;;;;;;;1.50;0.80;;;;;;;29.10;27.06;97046.97;2077857;28;20232;-67
2022/07/05 10:44:34;;;;;;;1.98;0.80;;;;;;;28.98;26.02;97039.31;2090901;28;20452;-67
2022/07/05 10:45:38;;;;;;;12.20;1.00;;;;;;;28.66;26.72;97040.25;2082249;28;20193;-67
2022/07/05 10:46:43;;;;;;;1.80;0.80;;;;;;;28.50;26.64;97033.91;2081397;28;20189;-67
2022/07/05 10:48:10;;;;;;;2.90;0.68;;;;;;;28.87;26.05;97036.19;2073615;28;20746;-67
2022/07/05 10:49:17;;;;;;;2.38;0.82;;;;;;;28.78;26.46;97033.50;2089455;28;20682;-68
2022/07/05 10:50:22;;;;;;;3.60;0.90;;;;;;;28.48;26.41;97033.25;2086383;28;20254;-68
2022/07/05 10:51:24;;;;;;;1.90;0.60;;;;;;;29.29;27.55;97038.50;2086302;28;20197;-68
2022/07/05 10:52:26;;;;;;;1.70;0.70;;;;;;;29.32;26.93;97037.31;2085182;28;20252;-67
2022/07/05 10:53:32;;;;;;;1.58;0.80;;;;;;;29.37;26.22;97034.94;2083040;28;20247;-66
2022/07/05 10:54:34;;;;;;;2.65;0.70;;;;;;;29.04;26.02;97026.16;2081991;28;20201;-68
2022/07/05 10:56:04;;;;;;;2.22;0.70;;;;;;;29.28;26.84;97038.66;2078672;28;20197;-68
2022/07/05 10:57:23;;;;;;;4.35;0.85;;;;;;;28.69;26.42;97036.41;2078899;28;20204;-68
2022/07/05 10:58:36;;;;;;;2.90;0.70;;;;;;;28.60;26.89;97032.91;2080854;28;20241;-67
2022/07/05 11:00:05;;;;;;;2.17;0.80;;;;;;;28.95;26.75;97041.50;2092477;28;20250;-67
2022/07/05 11:01:15;;;;;;;1.80;0.90;;;;;;;28.93;26.96;97038.16;2083793;28;20197;-67
2022/07/05 11:02:17;;;;;;;1.65;0.70;;;;;;;29.41;26.27;97038.09;2081489;28;20819;-68
2022/07/05 11:03:47;;;;;;;2.30;0.88;;;;;;;29.62;26.85;97037.44;2075384;28;20614;-67
2022/07/05 11:04:55;;;;;;;6.32;1.42;;;;;;;28.81;27.90;97032.31;2084247;28;20676;-68
2022/07/05 11:05:57;;;;;;;2.28;0.70;;;;;;;28.78;27.72;97040.75;2082480;28;20201;-67
2022/07/05 11:06:58;;;;;;;3.50;0.95;;;;;;;29.15;27.26;97037.38;2082980;28;20659;-68
2022/07/05 11:08:04;;;;;;;4.82;0.77;;;;;;;29.62;27.25;97038.28;2075462;28;20220;-68
2022/07/05 11:09:12;;;;;;;1.85;0.90;;;;;;;29.64;27.33;97041.63;2088453;28;20201;-67
2022/07/05 11:10:13;;;;;;;2.30;0.90;;;;;;;28.98;28.00;97035.78;2084710;28;20201;-67
2022/07/05 11:11:14;;;;;;;3.25;0.60;;;;;;;29.21;28.24;97035.81;2084008;28;20428;-67
2022/07/05 11:12:16;;;;;;;1.77;0.77;;;;;;;29.57;27.74;97042.50;2082847;28;20221;-67
2022/07/05 11:13:37;;;;;;;2.83;0.83;;;;;;;29.29;27.21;97038.50;2081783;28;20216;-68
2022/07/05 11:14:39;;;;;;;4.15;0.80;;;;;;;29.59;26.89;97043.19;2083380;28;20423;-68
2022/07/05 11:16:19;;;;;;;14.00;1.03;;;;;;;28.93;26.35;97038.16;2081308;28;20205;-67
2022/07/05 11:39:16;;;;;;;2.03;0.68;;;;;;;30.55;25.42;97032.75;2085781;28;20597;-67
2022/07/05 11:40:21;;;;;;;2.03;0.70;;;;;;;30.73;25.47;97029.69;2082038;28;20203;-67
2022/07/05 11:41:22;;;;;;;1.67;0.68;;;;;;;30.19;25.38;97032.59;2075726;28;20314;-67
2022/07/05 11:42:24;;;;;;;1.75;0.70;;;;;;;30.78;25.20;97026.44;2079500;28;20208;-68
2022/07/05 11:43:27;;;;;;;2.00;0.90;;;;;;;30.44;25.60;97023.25;2080151;28;20600;-67
2022/07/05 11:44:32;;;;;;;3.28;0.80;;;;;;;30.56;25.48;97029.06;2091823;28;20204;-67
2022/07/05 11:45:58;;;;;;;7.43;1.35;;;;;;;29.36;26.35;97030.56;2088007;28;20192;-67
2022/07/05 11:47:01;;;;;;;8.10;1.07;;;;;;;29.22;25.89;97025.94;2086333;28;20872;-68
2022/07/05 11:48:15;;;;;;;1.43;0.80;;;;;;;29.53;25.64;97027.75;2076922;28;20470;-67
2022/07/05 11:49:23;;;;;;;2.90;0.90;;;;;;;29.15;26.86;97015.88;2089104;28;20994;-67
2022/07/05 11:50:30;;;;;;;1.67;0.60;;;;;;;29.84;26.82;97024.13;2083011;28;20255;-68
2022/07/05 11:51:32;;;;;;;1.90;0.93;;;;;;;30.26;26.67;97018.22;2081574;28;20664;-67
2022/07/05 11:52:35;;;;;;;2.17;0.90;;;;;;;30.04;25.68;97029.88;2078669;28;20437;-68
2022/07/05 11:53:37;;;;;;;5.60;1.07;;;;;;;30.59;26.05;97030.53;2079034;28;20437;-68
2022/07/05 11:55:01;;;;;;;9.50;1.03;;;;;;;30.18;25.18;97026.38;2083422;28;20457;-67
2022/07/05 11:56:04;;;;;;;2.23;1.00;;;;;;;29.93;25.99;97015.84;2082475;28;20426;-69
2022/07/05 11:57:10;;;;;;;1.97;0.70;;;;;;;29.51;25.70;97013.63;2085327;28;20437;-69
2022/07/05 11:58:13;;;;;;;3.73;1.20;;;;;;;29.80;25.13;97015.59;2078997;28;20469;-69
2022/07/05 11:59:21;;;;;;;3.40;0.70;;;;;;;29.58;25.60;97010.03;2088600;28;20426;-69
2022/07/05 12:00:35;;;;;;;68.37;41.60;;;;;;;30.38;25.17;97018.59;2082832;28;20441;-68
2022/07/05 12:01:44;;;;;;;14.07;7.40;;;;;;;30.12;26.34;97017.19;2080375;28;20430;-72
2022/07/05 12:02:46;;;;;;;2.87;0.73;;;;;;;29.95;26.30;97016.53;2072464;28;20471;-69
2022/07/05 12:03:55;;;;;;;10.50;1.10;;;;;;;29.13;26.70;97017.91;2090349;28;20428;-70
2022/07/05 12:04:57;;;;;;;3.60;0.90;;;;;;;29.58;26.63;97009.22;2080490;28;20454;-70
2022/07/05 12:06:09;;;;;;;1.80;0.77;;;;;;;30.33;25.82;97012.94;2084378;28;20801;-69
2022/07/05 12:07:11;;;;;;;4.80;0.80;;;;;;;30.22;25.39;97010.69;2077713;28;20423;-66
2022/07/05 12:08:19;;;;;;;3.63;0.87;;;;;;;30.71;25.68;97010.16;2079185;28;20460;-66
2022/07/05 12:12:42;;;;;;;5.20;0.77;;;;;;;31.07;24.88;97003.16;2081386;28;20844;-66
2022/07/05 12:13:44;;;;;;;1.57;0.70;;;;;;;30.18;25.51;97010.22;2080162;28;20485;-66
2022/07/05 12:14:51;;;;;;;1.40;0.70;;;;;;;30.09;25.25;96996.03;2079673;28;20426;-66
2022/07/05 12:16:00;;;;;;;2.77;0.80;;;;;;;29.87;25.15;97003.09;2081706;28;20426;-66
2022/07/05 12:17:15;;;;;;;9.23;0.80;;;;;;;29.30;26.19;96994.44;2078975;28;20426;-65
2022/07/05 12:18:25;;;;;;;6.90;1.00;;;;;;;29.25;26.55;96990.59;2076607;28;20998;-66
2022/07/05 12:19:27;;;;;;;4.27;0.70;;;;;;;30.26;26.54;96995.84;2090761;28;20464;-66
2022/07/05 12:35:02;;;;;;;1.88;0.93;;;;;;;30.24;25.48;96993.31;2085373;28;20576;-68
2022/07/05 12:36:12;;;;;;;4.90;1.15;;;;;;;29.87;26.00;96992.31;2079938;28;20250;-70
2022/07/05 12:37:24;;;;;;;1.77;0.83;;;;;;;30.25;25.85;96997.69;2079252;28;20670;-70
2022/07/05 12:38:28;;;;;;;4.27;0.90;;;;;;;29.94;26.32;96995.16;2078623;28;20804;-68
2022/07/05 12:39:30;;;;;;;4.50;0.90;;;;;;;29.92;26.45;96995.34;2084651;28;20425;-69
2022/07/05 12:40:32;;;;;;;2.70;0.90;;;;;;;30.17;26.26;96991.56;2081812;28;20788;-67
2022/07/05 12:41:42;;;;;;;2.37;1.07;;;;;;;30.42;26.11;96992.13;2086001;28;20932;-67
2022/07/05 12:42:44;;;;;;;1.67;0.80;;;;;;;30.46;26.32;96990.72;2074742;28;20488;-66
2022/07/05 12:43:53;;;;;;;9.17;0.80;;;;;;;30.61;26.09;96997.00;2089600;28;20433;-67
2022/07/05 12:45:15;;;;;;;2.60;0.90;;;;;;;30.94;25.31;97001.13;2082633;28;20553;-66
2022/07/05 12:46:17;;;;;;;3.00;1.10;;;;;;;30.66;24.76;96999.09;2083627;28;20925;-69
2022/07/05 12:47:19;;;;;;;1.70;0.90;;;;;;;28.42;26.64;96998.22;2081793;28;20433;-70
2022/07/05 12:48:30;;;;;;;4.47;1.00;;;;;;;27.95;28.11;96992.56;2078335;28;20501;-70
2022/07/05 12:49:51;;;;;;;3.65;1.13;;;;;;;27.80;28.20;96989.72;2089187;28;20891;-71
2022/07/05 12:50:53;;;;;;;6.47;0.77;;;;;;;28.40;28.11;96989.47;2083153;28;20695;-68
2022/07/05 12:52:15;;;;;;;3.80;1.05;;;;;;;29.56;25.82;96982.50;2081374;28;20205;-71
2022/07/05 12:58:55;;;;;;;2.73;0.90;;;;;;;29.46;25.78;96982.75;2083957;28;20622;-70
2022/07/05 13:00:07;;;;;;;3.80;0.90;;;;;;;29.48;26.54;96983.41;2085001;28;20800;-71
2022/07/05 13:01:37;;;;;;;3.43;0.80;;;;;;;29.39;26.71;96987.16;2078916;28;20426;-69
2022/07/05 13:02:46;;;;;;;2.15;0.70;;;;;;;29.21;27.38;96989.28;2072546;28;20438;-69
2022/07/05 13:04:01;;;;;;;7.03;0.93;;;;;;;29.44;27.05;96982.06;2090328;28;20257;-69
2022/07/05 13:05:03;;;;;;;1.63;0.70;;;;;;;29.88;25.99;96987.78;2089173;28;20417;-69
2022/07/05 13:06:04;;;;;;;1.90;0.80;;;;;;;30.50;25.70;96992.09;2090734;28;20420;-69
2022/07/05 13:07:06;;;;;;;2.55;0.90;;;;;;;30.91;25.67;96975.38;2083566;28;20936;-69
2022/07/05 13:08:29;;;;;;;2.13;1.07;;;;;;;31.55;25.36;96986.44;2080538;28;20259;-68
2022/07/05 13:09:35;;;;;;;1.87;0.70;;;;;;;31.27;24.51;96985.34;2090795;28;20621;-69
2022/07/05 13:10:46;;;;;;;2.47;0.80;;;;;;;30.98;24.33;96977.31;2088043;28;20422;-69
2022/07/05 13:11:47;;;;;;;2.63;1.20;;;;;;;31.42;23.50;96985.28;2089362;28;20423;-70
2022/07/05 13:12:49;;;;;;;3.00;0.93;;;;;;;31.75;24.17;96986.66;2080238;28;20433;-69
2022/07/05 13:13:50;;;;;;;3.63;1.10;;;;;;;31.98;24.25;96990.97;2082025;28;20418;-69
2022/07/05 13:14:53;;;;;;;1.40;0.70;;;;;;;32.21;23.89;96985.34;2083241;28;20454;-69
2022/07/05 13:15:54;;;;;;;2.63;1.23;;;;;;;31.72;23.94;96985.16;2084216;28;20475;-69
2022/07/05 13:16:56;;;;;;;1.67;0.80;;;;;;;31.95;23.33;96994.91;2082553;28;20892;-70
2022/07/05 13:17:58;;;;;;;5.03;0.80;;;;;;;30.74;24.68;96988.25;2075028;28;20884;-69
2022/07/05 13:19:10;;;;;;;1.50;0.80;;;;;;;31.15;24.22;96997.66;2092548;28;20551;-69
2022/07/05 13:20:17;;;;;;;3.60;1.07;;;;;;;31.40;24.54;96998.13;2086163;28;20440;-69
2022/07/05 13:21:18;;;;;;;2.00;0.80;;;;;;;31.14;24.10;96987.91;2081159;28;20426;-69
2022/07/05 13:22:24;;;;;;;2.07;0.90;;;;;;;31.02;23.78;96984.84;2080276;28;20926;-69
2022/07/05 13:23:25;;;;;;;1.47;0.80;;;;;;;31.30;23.32;96985.97;2077530;28;20531;-69
2022/07/05 13:24:28;;;;;;;3.00;1.00;;;;;;;31.39;23.51;96984.84;2092767;28;20421;-70
2022/07/05 13:25:29;;;;;;;2.60;1.00;;;;;;;30.94;23.52;96979.53;2080569;28;20426;-69
2022/07/05 13:26:31;;;;;;;2.60;0.80;;;;;;;31.13;24.03;96982.69;2084017;28;20437;-69
2022/07/05 13:27:34;;;;;;;1.30;0.70;;;;;;;31.94;23.73;96978.91;2073396;28;20433;-69
2022/07/05 13:28:35;;;;;;;5.30;1.10;;;;;;;32.54;22.52;96984.69;2089876;28;20421;-69
2022/07/05 13:29:37;;;;;;;3.73;0.67;;;;;;;31.67;23.23;96981.38;2086209;28;20430;-69
2022/07/05 13:30:38;;;;;;;5.67;1.07;;;;;;;32.46;21.83;96977.59;2080786;28;20422;-69
2022/07/05 13:31:40;;;;;;;2.80;1.00;;;;;;;32.39;22.52;96985.69;2080126;28;20431;-69
2022/07/05 13:32:41;;;;;;;4.20;0.90;;;;;;;30.55;23.19;96981.56;2080037;28;20422;-69
2022/07/05 13:33:43;;;;;;;4.10;0.90;;;;;;;30.09;25.00;96969.09;2079502;28;20418;-69
2022/07/05 13:34:45;;;;;;;1.70;0.80;;;;;;;31.05;23.57;96972.84;2080176;28;20557;-69
2022/07/05 13:35:47;;;;;;;4.50;0.83;;;;;;;31.34;22.92;96976.47;2082449;28;20456;-69
2022/07/05 13:36:48;;;;;;;1.93;0.63;;;;;;;31.64;23.05;96979.91;2079882;28;20937;-69
2022/07/05 13:37:49;;;;;;;2.10;0.80;;;;;;;31.99;22.51;96974.56;2070685;28;20422;-69
2022/07/05 13:38:51;;;;;;;1.20;0.70;;;;;;;31.94;22.29;96976.22;2090763;28;20475;-69
2022/07/05 13:39:52;;;;;;;1.80;0.80;;;;;;;31.56;22.95;96971.91;2086574;28;20456;-69
2022/07/05 13:40:54;;;;;;;6.57;1.10;;;;;;;31.31;23.73;96966.91;2079144;28;20439;-68
2022/07/05 13:41:56;;;;;;;1.40;0.70;;;;;;;30.74;24.25;96980.16;2082924;28;20472;-68
2022/07/05 13:42:58;;;;;;;2.73;0.80;;;;;;;30.59;23.82;96974.78;2077240;28;20477;-68
2022/07/05 13:43:59;;;;;;;2.10;0.80;;;;;;;30.82;24.55;96975.66;2088054;28;20468;-68
2022/07/05 13:45:01;;;;;;;2.67;0.80;;;;;;;31.22;24.19;96974.31;2082667;28;20434;-68
2022/07/05 13:46:02;;;;;;;3.70;0.90;;;;;;;31.33;23.37;96978.34;2079762;28;20457;-69
2022/07/05 13:47:04;;;;;;;1.40;0.70;;;;;;;31.77;22.85;96978.34;2074844;28;20430;-69
2022/07/05 13:48:06;;;;;;;2.10;0.80;;;;;;;31.45;22.81;96975.97;2056757;28;21111;-69
2022/07/05 13:49:07;;;;;;;1.53;0.70;;;;;;;31.73;23.22;96984.16;2068595;28;20673;-69
2022/07/05 13:50:31;;;;;;;2.77;0.87;;;;;;;30.89;23.88;96976.59;2072415;28;20775;-69
2022/07/05 13:51:30;;;;;;;1.60;0.60;;;;;;;30.75;23.67;96989.06;2074659;28;20457;-69
2022/07/05 13:52:32;;;;;;;1.97;1.03;;;;;;;29.90;24.50;96973.16;2074853;28;20427;-69
2022/07/05 13:53:36;;;;;;;2.50;0.77;;;;;;;29.69;24.73;96984.59;2074608;28;20439;-69
2022/07/05 13:54:38;;;;;;;1.70;0.83;;;;;;;29.75;25.24;96977.63;2074242;28;20938;-69
2022/07/05 13:55:41;;;;;;;3.33;1.23;;;;;;;30.20;24.92;96981.25;2073409;28;20826;-69
2022/07/05 13:56:42;;;;;;;2.57;0.90;;;;;;;30.40;25.00;96978.84;2072054;28;20428;-69
2022/07/05 13:57:50;;;;;;;9.87;1.53;;;;;;;30.25;24.92;96978.03;2066579;28;20452;-69
2022/07/05 13:58:53;;;;;;;1.77;0.80;;;;;;;31.37;24.20;96984.19;2076240;28;20430;-69
2022/07/05 13:59:54;;;;;;;1.60;0.70;;;;;;;31.04;23.02;96980.06;2069590;28;20902;-69
2022/07/05 14:00:56;;;;;;;4.93;0.87;;;;;;;30.61;23.72;96972.75;2072392;28;20938;-69
2022/07/05 14:01:58;;;;;;;2.70;0.90;;;;;;;30.31;24.26;96979.97;2072973;28;20427;-69
2022/07/05 14:02:59;;;;;;;1.70;0.70;;;;;;;30.16;24.33;96979.13;2069223;28;20501;-69
2022/07/05 14:04:06;;;;;;;4.70;1.73;;;;;;;30.41;23.99;96974.28;2086725;28;20421;-69
2022/07/05 14:05:08;;;;;;;2.33;1.00;;;;;;;30.26;24.51;96975.13;2077509;28;20601;-69
2022/07/05 14:06:10;;;;;;;2.20;0.95;;;;;;;29.88;24.56;96974.34;2075580;28;20430;-69
2022/07/05 14:07:11;;;;;;;2.53;0.80;;;;;;;29.79;24.91;96974.41;2074086;28;20550;-69
2022/07/05 14:08:14;;;;;;;1.85;0.77;;;;;;;30.39;25.34;96970.97;2071775;28;20465;-69
2022/07/05 14:09:16;;;;;;;4.25;0.70;;;;;;;30.32;24.56;96976.25;2082295;28;20205;-69
2022/07/05 14:10:17;;;;;;;2.45;0.80;;;;;;;30.67;24.51;96971.16;2074773;28;20205;-69
2022/07/05 14:11:19;;;;;;;4.20;0.70;;;;;;;31.10;24.15;96984.75;2073691;28;20198;-69
2022/07/05 14:12:20;;;;;;;2.53;0.90;;;;;;;31.34;23.17;96984.56;2075366;28;20435;-69
2022/07/05 14:13:22;;;;;;;1.63;0.70;;;;;;;30.96;23.33;96974.81;2070749;28;20464;-69
2022/07/05 14:14:24;;;;;;;1.50;0.70;;;;;;;30.72;22.35;96975.97;2072696;28;20431;-69
2022/07/05 14:15:25;;;;;;;4.90;0.80;;;;;;;30.33;23.78;96974.41;2075128;28;20469;-69
2022/07/05 14:16:27;;;;;;;4.67;0.80;;;;;;;30.86;23.65;96966.19;2075959;28;20464;-69
2022/07/05 14:17:28;;;;;;;3.30;1.00;;;;;;;31.29;23.07;96966.28;2076563;28;20422;-69
2022/07/05 14:18:30;;;;;;;1.57;0.60;;;;;;;31.30;23.09;96954.47;2071333;28;20466;-70
2022/07/05 14:19:32;;;;;;;2.27;0.90;;;;;;;31.98;22.34;96967.50;2080468;28;20914;-69
2022/07/05 14:20:33;;;;;;;1.17;0.50;;;;;;;32.36;21.51;96961.75;2075838;28;20423;-70
2022/07/05 14:21:35;;;;;;;5.83;0.80;;;;;;;32.58;22.27;96963.53;2077826;28;20534;-69
2022/07/05 14:22:39;;;;;;;1.80;0.70;;;;;;;32.94;22.03;96959.72;2066437;28;20422;-70
2022/07/05 14:23:41;;;;;;;2.40;0.80;;;;;;;32.03;22.24;96965.03;2076672;28;20435;-69
2022/07/05 14:24:43;;;;;;;3.13;0.70;;;;;;;31.51;23.24;96961.69;2080884;28;20504;-69
2022/07/05 14:25:45;;;;;;;4.60;1.10;;;;;;;31.90;22.71;96963.09;2074780;28;20430;-69
2022/07/05 14:26:47;;;;;;;1.60;0.80;;;;;;;31.89;21.88;96963.28;2074397;28;20433;-69
2022/07/05 14:27:48;;;;;;;6.43;1.00;;;;;;;31.29;22.39;96962.72;2066039;28;20422;-69
2022/07/05 14:28:49;;;;;;;1.73;0.80;;;;;;;30.38;23.72;96969.28;2085877;28;20789;-69
2022/07/05 14:29:51;;;;;;;4.83;0.90;;;;;;;30.25;23.74;96956.47;2081826;28;20430;-69
2022/07/05 14:30:53;;;;;;;3.33;0.93;;;;;;;30.16;24.52;96958.44;2076118;28;20458;-69
2022/07/05 14:31:54;;;;;;;3.30;1.27;;;;;;;30.27;24.26;96970.56;2077609;28;20756;-69
2022/07/05 14:32:56;;;;;;;8.13;1.57;;;;;;;30.10;23.97;96943.84;2077352;28;20489;-69
2022/07/05 14:33:57;;;;;;;9.10;1.40;;;;;;;30.66;23.98;96964.09;2079115;28;20829;-69
2022/07/05 14:34:59;;;;;;;2.23;0.80;;;;;;;30.89;23.63;96965.81;2078199;28;20419;-68
2022/07/05 14:36:00;;;;;;;4.37;1.10;;;;;;;30.34;24.48;96957.22;2074869;28;20467;-69
2022/07/05 14:37:02;;;;;;;2.00;1.00;;;;;;;30.13;23.83;96956.94;2077183;28;20426;-69
2022/07/05 14:38:04;;;;;;;3.80;1.00;;;;;;;30.03;23.75;96956.38;2072520;28;20461;-69
2022/07/05 14:39:05;;;;;;;3.87;0.90;;;;;;;30.58;23.89;96966.91;2080548;28;20426;-69
2022/07/05 14:40:07;;;;;;;1.40;0.80;;;;;;;30.75;23.09;96967.50;2077062;28;20435;-69
2022/07/05 14:41:09;;;;;;;2.03;1.00;;;;;;;30.56;23.84;96961.69;2075781;28;20433;-69
2022/07/05 14:42:10;;;;;;;5.23;1.30;;;;;;;30.72;23.17;96963.34;2074696;28;20502;-69
2022/07/05 14:43:12;;;;;;;2.63;0.80;;;;;;;30.17;22.59;96965.50;2065645;28;20842;-69
2022/07/05 14:44:15;;;;;;;3.07;0.93;;;;;;;29.92;23.03;96946.88;2069614;28;20431;-68
2022/07/05 14:45:17;;;;;;;4.17;0.80;;;;;;;29.62;23.91;96948.66;2071801;28;20473;-70
2022/07/05 14:46:19;;;;;;;4.37;0.90;;;;;;;30.06;23.85;96961.38;2071348;28;20423;-69
2022/07/05 14:47:21;;;;;;;2.60;0.83;;;;;;;30.81;23.94;96950.59;2074627;28;20530;-69
2022/07/05 14:48:23;;;;;;;2.23;0.80;;;;;;;31.12;22.92;96954.06;2070877;28;20477;-69
2022/07/05 14:49:24;;;;;;;3.07;1.10;;;;;;;31.03;23.42;96951.47;2080506;28;20418;-70
2022/07/05 14:50:26;;;;;;;4.80;1.20;;;;;;;31.37;23.14;96949.13;2075365;28;21035;-69
2022/07/05 14:51:27;;;;;;;3.60;1.00;;;;;;;30.86;22.38;96952.72;2073954;28;20534;-69